Time;durP1;ratioP1;P1;durP2;ratioP2;P2;SDS_P1;SDS_P2;PMS_P1;PMS_P2;Temp;Humidity;BMP_temperature;BMP_pressure;BME280_temperature;BME280_humidity;BME280_pressure;Samples;Min_cycle;Max_cycle;Signal;HPM_P1;HPM_P2
2021/07/13 00:02:16;;;;;;;8.07;6.82;;;23.20;72.20;;;;;;5051705;28;20048;-44
2021/07/13 00:04:42;;;;;;;6.03;5.43;;;23.20;72.20;;;;;;5052295;28;20307;-44
2021/07/13 00:07:08;;;;;;;6.93;6.22;;;23.20;72.20;;;;;;5046761;28;20045;-42
2021/07/13 00:09:34;;;;;;;5.78;5.07;;;23.20;72.20;;;;;;5051392;28;20060;-40
2021/07/13 00:11:59;;;;;;;6.03;5.43;;;23.20;72.20;;;;;;5051931;28;20497;-42
2021/07/13 00:14:26;;;;;;;4.82;4.32;;;23.20;72.20;;;;;;5051731;28;20045;-41
2021/07/13 00:16:52;;;;;;;5.15;4.65;;;23.20;72.20;;;;;;5050850;28;20052;-43
2021/07/13 00:19:18;;;;;;;5.10;4.60;;;23.20;72.20;;;;;;5052033;28;20049;-42
2021/07/13 00:21:44;;;;;;;6.68;5.05;;;23.20;72.20;;;;;;5052152;28;20098;-41
2021/07/13 00:24:11;;;;;;;7.43;5.13;;;23.20;72.20;;;;;;5051682;28;20052;-41
2021/07/13 00:26:37;;;;;;;4.80;4.40;;;23.20;72.30;;;;;;5051817;28;20068;-45
2021/07/13 00:29:06;;;;;;;6.47;4.68;;;23.20;72.30;;;;;;5051693;28;20103;-45
2021/07/13 00:31:33;;;;;;;6.50;5.88;;;23.20;72.30;;;;;;5051562;28;20041;-42
2021/07/13 00:33:58;;;;;;;5.45;4.85;;;23.20;72.30;;;;;;5049467;28;20053;-45
2021/07/13 00:36:25;;;;;;;6.32;5.47;;;23.20;72.30;;;;;;5051473;28;20049;-46
2021/07/13 00:38:51;;;;;;;5.97;5.22;;;23.20;72.30;;;;;;5051767;28;20045;-41
2021/07/13 00:41:17;;;;;;;6.82;6.18;;;23.20;72.30;;;;;;5052774;28;20047;-39
2021/07/13 00:43:42;;;;;;;6.13;5.43;;;23.20;72.30;;;;;;5053036;28;20106;-42
2021/07/13 00:46:08;;;;;;;7.88;7.07;;;23.20;72.30;;;;;;5054596;28;20056;-44
2021/07/13 00:48:34;;;;;;;8.27;6.85;;;23.20;72.30;;;;;;5052685;28;20128;-42
2021/07/13 00:51:03;;;;;;;8.75;6.78;;;23.20;72.30;;;;;;5053810;28;20048;-43
2021/07/13 00:53:29;;;;;;;8.10;7.30;;;23.20;72.30;;;;;;5052970;28;20044;-41
2021/07/13 00:55:59;;;;;;;9.25;8.25;;;23.20;72.30;;;;;;5053441;28;20055;-44
2021/07/13 00:58:25;;;;;;;11.20;8.25;;;23.20;72.30;;;;;;5054876;28;20052;-42
2021/07/13 01:00:52;;;;;;;9.20;8.13;;;23.20;72.30;;;;;;5054210;28;20040;-47
2021/07/13 01:03:17;;;;;;;9.68;8.32;;;23.20;72.30;;;;;;5053430;28;20048;-42
2021/07/13 01:05:49;;;;;;;8.88;7.68;;;23.10;72.30;;;;;;5054225;28;20037;-46
2021/07/13 01:08:14;;;;;;;11.57;9.07;;;23.20;72.40;;;;;;5054905;28;20124;-44
2021/07/13 01:11:09;;;;;;;9.88;8.77;;;23.20;72.40;;;;;;5053774;28;20040;-41
2021/07/13 01:13:50;;;;;;;10.15;8.13;;;23.20;72.30;;;;;;5054665;28;20051;-44
2021/07/13 01:16:41;;;;;;;9.75;8.32;;;23.20;72.30;;;;;;5052808;28;20508;-42
2021/07/13 01:19:34;;;;;;;10.30;8.00;;;23.10;72.30;;;;;;5054960;28;20049;-45
2021/07/13 01:22:09;;;;;;;15.07;8.57;;;23.20;72.30;;;;;;5054790;28;20405;-42
2021/07/13 01:24:54;;;;;;;10.68;8.88;;;23.20;72.30;;;;;;5054099;28;20045;-45
2021/07/13 01:27:25;;;;;;;10.70;9.20;;;23.20;72.30;;;;;;5042969;28;20076;-39
2021/07/13 01:29:53;;;;;;;10.05;8.80;;;23.20;72.40;;;;;;5054550;28;20120;-43
2021/07/13 01:32:23;;;;;;;11.23;9.23;;;23.10;72.30;;;;;;5053664;28;20055;-41
2021/07/13 01:35:03;;;;;;;9.70;8.73;;;23.10;72.40;;;;;;5054335;28;20052;-41
2021/07/13 01:37:30;;;;;;;10.73;9.63;;;23.20;72.40;;;;;;5054207;28;20052;-45
2021/07/13 01:39:59;;;;;;;11.57;9.13;;;23.20;72.40;;;;;;5053811;28;20443;-41
2021/07/13 01:42:27;;;;;;;13.18;11.23;;;23.20;72.40;;;;;;5054607;28;20053;-46
2021/07/13 01:44:57;;;;;;;12.00;10.27;;;23.10;72.40;;;;;;5054049;28;20048;-44
2021/07/13 01:47:23;;;;;;;13.18;11.13;;;23.20;72.40;;;;;;5053171;28;20083;-41
2021/07/13 01:49:50;;;;;;;10.93;9.35;;;23.10;72.40;;;;;;5053783;28;20037;-41
2021/07/13 01:52:17;;;;;;;11.32;10.13;;;23.10;72.40;;;;;;5054688;28;20057;-40
2021/07/13 01:54:44;;;;;;;13.63;11.50;;;23.10;72.40;;;;;;5053148;28;20107;-41
2021/07/13 01:57:11;;;;;;;11.63;9.98;;;23.20;72.40;;;;;;5053921;28;20120;-42
2021/07/13 01:59:39;;;;;;;9.75;8.63;;;23.10;72.40;;;;;;5053877;28;20045;-42
2021/07/13 02:02:08;;;;;;;11.13;9.85;;;23.10;72.40;;;;;;5052839;28;20400;-41
2021/07/13 02:04:37;;;;;;;9.88;8.88;;;23.10;72.40;;;;;;5050226;28;20036;-41
2021/07/13 02:07:08;;;;;;;10.85;8.52;;;23.10;72.40;;;;;;5053764;28;20048;-42
2021/07/13 02:09:35;;;;;;;11.57;10.38;;;23.10;72.40;;;;;;5053298;28;20033;-40
2021/07/13 02:12:04;;;;;;;11.60;8.80;;;23.10;72.40;;;;;;5052032;28;20052;-42
2021/07/13 02:14:30;;;;;;;8.77;7.85;;;23.10;72.40;;;;;;5053517;28;20041;-45
2021/07/13 02:16:55;;;;;;;11.90;10.00;;;23.10;72.40;;;;;;5052980;28;20386;-40
2021/07/13 02:19:21;;;;;;;8.68;7.75;;;23.10;72.40;;;;;;5053436;28;20049;-43
2021/07/13 02:21:48;;;;;;;7.75;6.70;;;23.10;72.40;;;;;;5053383;28;20094;-42
2021/07/13 02:24:15;;;;;;;6.72;6.10;;;23.10;72.40;;;;;;5053343;28;20538;-42
2021/07/13 02:26:43;;;;;;;8.93;8.00;;;23.10;72.40;;;;;;5053253;28;20049;-42
2021/07/13 02:29:16;;;;;;;10.02;8.45;;;23.10;72.40;;;;;;5052942;28;20045;-42
2021/07/13 02:31:45;;;;;;;7.13;6.35;;;23.10;72.40;;;;;;5050857;28;20037;-42
2021/07/13 02:34:15;;;;;;;9.43;7.25;;;23.10;72.40;;;;;;5052517;28;20064;-42
2021/07/13 02:36:46;;;;;;;8.82;7.40;;;23.10;72.40;;;;;;5051513;28;20056;-43
2021/07/13 02:39:14;;;;;;;7.95;7.15;;;23.10;72.40;;;;;;5052040;28;20049;-44
2021/07/13 02:41:41;;;;;;;9.63;8.05;;;23.10;72.40;;;;;;5052526;28;20132;-45
2021/07/13 02:44:09;;;;;;;7.85;6.97;;;23.10;72.40;;;;;;5052644;28;20052;-44
2021/07/13 02:46:41;;;;;;;8.88;7.53;;;23.10;72.40;;;;;;5050705;28;20378;-41
2021/07/13 02:49:10;;;;;;;8.30;7.32;;;23.10;72.40;;;;;;5052829;28;20580;-43
2021/07/13 02:51:37;;;;;;;10.75;8.05;;;23.20;72.40;;;;;;5053555;28;20049;-43
2021/07/13 02:54:06;;;;;;;9.63;8.63;;;23.10;72.40;;;;;;5052346;28;20136;-42
2021/07/13 02:56:35;;;;;;;10.38;8.30;;;23.10;72.40;;;;;;5052611;28;20045;-41
2021/07/13 02:59:02;;;;;;;7.65;6.25;;;23.10;72.40;;;;;;5053435;28;20422;-41
2021/07/13 03:01:29;;;;;;;9.18;7.85;;;23.10;72.40;;;;;;5050903;28;20452;-40
2021/07/13 03:03:57;;;;;;;9.40;8.00;;;23.10;72.40;;;;;;5040655;28;20049;-41
2021/07/13 03:06:24;;;;;;;9.38;8.15;;;23.10;72.40;;;;;;5052374;28;20045;-43
2021/07/13 03:08:50;;;;;;;8.07;7.28;;;23.10;72.40;;;;;;5032482;28;20128;-44
2021/07/13 03:11:16;;;;;;;8.30;7.03;;;23.10;72.40;;;;;;5033365;28;20046;-41
2021/07/13 03:13:42;;;;;;;9.10;7.70;;;23.10;72.40;;;;;;5052256;28;20041;-39
2021/07/13 03:16:10;;;;;;;8.20;6.60;;;23.10;72.40;;;;;;5050713;28;20041;-44
2021/07/13 03:18:36;;;;;;;10.32;9.20;;;23.10;72.40;;;;;;5051409;28;20390;-39
2021/07/13 03:21:04;;;;;;;8.98;7.45;;;23.10;72.40;;;;;;5049946;28;20198;-41
2021/07/13 03:23:39;;;;;;;8.02;6.78;;;23.10;72.40;;;;;;5050865;28;20410;-39
2021/07/13 03:26:07;;;;;;;10.88;8.00;;;23.10;72.40;;;;;;5051457;28;20067;-40
2021/07/13 03:28:34;;;;;;;9.20;8.00;;;23.10;72.40;;;;;;5051771;28;20056;-42
2021/07/13 03:31:00;;;;;;;9.30;7.85;;;23.10;72.40;;;;;;5051140;28;20045;-43
2021/07/13 03:33:31;;;;;;;12.02;9.55;;;23.10;72.40;;;;;;5052536;28;20053;-40
2021/07/13 03:35:57;;;;;;;10.82;8.25;;;23.00;72.40;;;;;;5051736;28;20537;-40
2021/07/13 03:38:23;;;;;;;11.75;8.63;;;23.10;72.40;;;;;;5051327;28;20094;-39
2021/07/13 03:40:50;;;;;;;9.27;8.02;;;23.10;72.40;;;;;;5053122;28;20076;-43
2021/07/13 03:43:17;;;;;;;10.57;8.50;;;23.10;72.40;;;;;;5052788;28;20059;-43
2021/07/13 03:45:43;;;;;;;8.88;6.80;;;23.10;72.40;;;;;;5051745;28;20081;-42
2021/07/13 03:48:11;;;;;;;8.30;7.18;;;23.10;72.40;;;;;;5052326;28;20064;-42
2021/07/13 03:50:38;;;;;;;8.30;7.25;;;23.00;72.40;;;;;;5052059;28;20069;-43
2021/07/13 03:53:04;;;;;;;13.38;9.30;;;23.10;72.40;;;;;;5050528;28;20056;-45
2021/07/13 03:55:31;;;;;;;7.65;6.50;;;23.10;72.40;;;;;;5051676;28;20048;-44
2021/07/13 03:57:56;;;;;;;6.78;5.88;;;23.10;72.40;;;;;;5051300;28;20045;-43
2021/07/13 04:00:24;;;;;;;9.93;7.80;;;23.10;72.40;;;;;;5050729;28;20041;-41
2021/07/13 04:02:50;;;;;;;11.50;8.88;;;23.10;72.40;;;;;;5051337;28;20049;-41
2021/07/13 04:05:16;;;;;;;10.23;8.18;;;23.10;72.40;;;;;;5051453;28;20056;-42
2021/07/13 04:07:42;;;;;;;5.78;5.18;;;23.10;72.50;;;;;;5050305;28;20535;-42
2021/07/13 04:10:09;;;;;;;6.28;5.68;;;23.10;72.50;;;;;;5052047;28;20049;-46
2021/07/13 04:12:35;;;;;;;8.80;7.05;;;23.10;72.50;;;;;;5052443;28;20492;-45
2021/07/13 04:15:01;;;;;;;5.97;5.38;;;23.00;72.40;;;;;;5049756;28;20049;-37
2021/07/13 04:17:27;;;;;;;9.63;7.47;;;23.00;72.40;;;;;;5054594;28;20079;-43
2021/07/13 04:19:53;;;;;;;6.20;5.60;;;23.00;72.40;;;;;;5055542;28;20120;-40
2021/07/13 04:22:19;;;;;;;6.18;5.57;;;23.10;72.50;;;;;;5054660;28;20120;-42
2021/07/13 04:24:45;;;;;;;6.93;5.80;;;23.10;72.50;;;;;;5055310;28;20041;-38
2021/07/13 04:27:11;;;;;;;6.15;5.55;;;23.10;72.50;;;;;;5054846;28;20679;-41
2021/07/13 04:29:37;;;;;;;6.18;5.22;;;23.00;72.50;;;;;;5054769;28;20490;-41
2021/07/13 04:32:03;;;;;;;6.30;5.68;;;23.00;72.40;;;;;;5054670;28;20041;-42
2021/07/13 04:34:29;;;;;;;5.40;4.82;;;23.00;72.40;;;;;;5054532;28;20053;-40
2021/07/13 04:36:54;;;;;;;6.10;5.50;;;23.00;72.40;;;;;;5053448;28;20048;-38
2021/07/13 04:39:20;;;;;;;5.13;4.53;;;23.10;72.50;;;;;;5055099;28;20044;-41
2021/07/13 04:41:46;;;;;;;6.68;5.47;;;23.10;72.50;;;;;;5055555;28;20045;-40
2021/07/13 04:44:13;;;;;;;5.95;4.50;;;23.00;72.40;;;;;;5055283;28;20057;-41
2021/07/13 04:46:39;;;;;;;5.50;4.95;;;23.00;72.40;;;;;;5055059;28;20049;-38
2021/07/13 04:49:05;;;;;;;6.85;5.72;;;23.10;72.50;;;;;;5055427;28;20772;-39
2021/07/13 04:51:30;;;;;;;6.13;5.53;;;23.00;72.40;;;;;;5055010;28;20507;-41
2021/07/13 04:53:56;;;;;;;5.88;5.28;;;23.00;72.40;;;;;;5055102;28;20041;-43
2021/07/13 04:56:22;;;;;;;6.30;5.43;;;23.00;72.40;;;;;;5054945;28;20485;-42
2021/07/13 04:58:48;;;;;;;5.30;4.80;;;23.10;72.50;;;;;;5054861;28;20056;-41
2021/07/13 05:01:14;;;;;;;5.25;4.75;;;23.00;72.50;;;;;;5055438;28;20053;-42
2021/07/13 05:03:40;;;;;;;5.65;4.88;;;23.00;72.40;;;;;;5054837;28;20136;-42
2021/07/13 05:06:06;;;;;;;5.50;4.60;;;23.00;72.50;;;;;;5054674;28;20448;-41
2021/07/13 05:08:32;;;;;;;5.72;5.10;;;23.00;72.50;;;;;;5054983;28;20396;-40
2021/07/13 05:10:58;;;;;;;5.68;5.05;;;23.00;72.40;;;;;;5054901;28;20124;-41
2021/07/13 05:13:23;;;;;;;7.22;5.97;;;23.00;72.40;;;;;;5054116;28;20041;-41
2021/07/13 05:15:49;;;;;;;5.30;4.80;;;23.10;72.50;;;;;;5055045;28;20145;-40
2021/07/13 05:18:16;;;;;;;5.13;4.63;;;23.00;72.50;;;;;;5054020;28;20550;-39
2021/07/13 05:20:49;;;;;;;5.05;4.55;;;23.00;72.50;;;;;;5054565;28;20481;-42
2021/07/13 05:23:15;;;;;;;6.25;5.63;;;23.00;72.50;;;;;;5054916;28;20049;-41
2021/07/13 05:25:42;;;;;;;8.82;6.53;;;23.00;72.50;;;;;;5053830;28;20041;-42
2021/07/13 05:28:11;;;;;;;5.40;4.72;;;23.00;72.50;;;;;;5052190;28;20129;-42
2021/07/13 05:30:41;;;;;;;7.18;6.13;;;23.00;72.50;;;;;;5054862;28;20485;-42
2021/07/13 05:33:07;;;;;;;5.15;4.60;;;23.00;72.50;;;;;;5054401;28;20049;-39
2021/07/13 05:35:33;;;;;;;5.80;5.03;;;23.00;72.50;;;;;;5053388;28;20052;-40
2021/07/13 05:37:59;;;;;;;6.28;4.82;;;23.00;72.50;;;;;;5054489;28;20409;-42
2021/07/13 05:40:25;;;;;;;6.70;5.75;;;23.00;72.50;;;;;;5054552;28;20485;-42
2021/07/13 05:42:52;;;;;;;5.95;4.95;;;23.00;72.50;;;;;;5053551;28;20044;-39
2021/07/13 05:45:18;;;;;;;6.95;5.30;;;23.00;72.50;;;;;;5053162;28;20045;-40
2021/07/13 05:47:43;;;;;;;6.40;5.10;;;23.00;72.50;;;;;;5051679;28;20048;-43
2021/07/13 05:50:10;;;;;;;6.47;5.25;;;23.00;72.50;;;;;;5053645;28;20060;-43
2021/07/13 05:52:36;;;;;;;5.72;4.97;;;23.00;72.50;;;;;;5054547;28;20045;-41
2021/07/13 05:55:04;;;;;;;6.25;5.10;;;23.00;72.50;;;;;;5054477;28;20124;-41
2021/07/13 05:57:30;;;;;;;6.57;5.05;;;23.00;72.50;;;;;;5052450;28;20048;-42
2021/07/13 05:59:56;;;;;;;10.10;7.07;;;23.00;72.50;;;;;;5054208;28;20056;-41
2021/07/13 06:02:23;;;;;;;7.93;6.20;;;23.00;72.50;;;;;;5053527;28;20484;-41
2021/07/13 06:04:49;;;;;;;6.95;5.43;;;23.10;72.50;;;;;;5053368;28;20049;-41
2021/07/13 06:07:15;;;;;;;7.65;5.72;;;23.00;72.50;;;;;;5053564;28;20120;-41
2021/07/13 06:09:41;;;;;;;8.07;5.82;;;23.00;72.50;;;;;;5054071;28;20132;-40
2021/07/13 06:12:06;;;;;;;7.03;5.30;;;23.00;72.40;;;;;;5053357;28;20128;-38
2021/07/13 06:14:36;;;;;;;6.00;5.00;;;23.00;72.50;;;;;;5053325;28;20060;-39
2021/07/13 06:17:06;;;;;;;9.77;7.03;;;23.00;72.40;;;;;;5052826;28;20033;-39
2021/07/13 06:19:32;;;;;;;10.00;7.18;;;23.00;72.50;;;;;;5046822;28;20044;-41
2021/07/13 06:21:57;;;;;;;6.18;5.30;;;23.00;72.40;;;;;;5053788;28;20045;-41
2021/07/13 06:24:23;;;;;;;6.57;5.72;;;23.00;72.50;;;;;;5053693;28;20077;-44
2021/07/13 06:26:49;;;;;;;5.93;5.30;;;23.00;72.50;;;;;;5053190;28;20045;-43
2021/07/13 06:29:15;;;;;;;6.20;5.10;;;23.00;72.40;;;;;;5052407;28;20391;-39
2021/07/13 06:31:40;;;;;;;5.95;5.35;;;23.00;72.50;;;;;;5052523;28;20049;-44
2021/07/13 06:34:06;;;;;;;6.43;5.47;;;23.00;72.40;;;;;;5052051;28;20493;-42
2021/07/13 06:36:32;;;;;;;6.82;5.38;;;23.10;72.50;;;;;;5052737;28;20049;-43
2021/07/13 06:38:58;;;;;;;6.20;5.38;;;23.00;72.40;;;;;;5052509;28;20519;-44
2021/07/13 06:41:24;;;;;;;7.63;5.53;;;23.00;72.40;;;;;;5052864;28;20064;-38
2021/07/13 06:43:50;;;;;;;5.57;4.97;;;23.00;72.40;;;;;;5052604;28;20048;-41
2021/07/13 06:46:16;;;;;;;6.78;5.20;;;23.00;72.40;;;;;;5053264;28;20044;-39
2021/07/13 06:48:42;;;;;;;6.93;5.60;;;23.00;72.50;;;;;;5051994;28;20485;-37
2021/07/13 06:51:07;;;;;;;5.70;5.05;;;23.00;72.40;;;;;;5049211;28;20111;-46
2021/07/13 06:53:33;;;;;;;6.72;5.57;;;23.00;72.40;;;;;;5049647;28;20126;-44
2021/07/13 06:55:59;;;;;;;6.97;5.43;;;23.00;72.40;;;;;;5049543;28;20536;-38
2021/07/13 06:58:25;;;;;;;6.72;5.45;;;23.00;72.50;;;;;;5051856;28;20052;-39
2021/07/13 07:00:50;;;;;;;6.55;5.78;;;23.00;72.40;;;;;;5052597;28;20044;-39
2021/07/13 07:03:16;;;;;;;6.10;5.38;;;23.00;72.40;;;;;;5052464;28;20076;-39
2021/07/13 07:05:42;;;;;;;6.97;5.63;;;23.00;72.40;;;;;;5052065;28;20564;-43
2021/07/13 07:08:08;;;;;;;5.28;4.78;;;23.00;72.40;;;;;;5052179;28;20052;-41
2021/07/13 07:10:35;;;;;;;5.25;4.55;;;23.10;72.50;;;;;;5051661;28;20637;-39
2021/07/13 07:13:01;;;;;;;6.05;5.10;;;23.00;72.40;;;;;;5050784;28;20493;-38
2021/07/13 07:15:28;;;;;;;5.55;4.90;;;23.00;72.40;;;;;;5049226;28;20087;-45
2021/07/13 07:17:55;;;;;;;6.78;5.05;;;23.00;72.40;;;;;;5051991;28;20072;-44
2021/07/13 07:20:26;;;;;;;5.32;4.82;;;23.00;72.40;;;;;;5051422;28;20050;-43
2021/07/13 07:22:53;;;;;;;6.25;4.85;;;23.00;72.40;;;;;;5047395;28;20053;-42
2021/07/13 07:25:19;;;;;;;6.68;4.80;;;23.00;72.40;;;;;;5047685;28;20045;-39
2021/07/13 07:27:46;;;;;;;5.85;4.63;;;23.00;72.40;;;;;;5048942;28;20076;-40
2021/07/13 07:30:14;;;;;;;6.25;5.10;;;23.10;72.50;;;;;;5047652;28;20044;-41
2021/07/13 07:32:41;;;;;;;5.38;4.75;;;23.10;72.50;;;;;;5046034;28;20052;-39
2021/07/13 07:35:08;;;;;;;5.07;4.25;;;23.00;72.40;;;;;;5041875;28;20061;-43
2021/07/13 07:37:35;;;;;;;4.32;3.92;;;23.10;72.50;;;;;;5046579;28;20400;-41
2021/07/13 07:40:02;;;;;;;4.50;4.10;;;22.90;72.40;;;;;;5044122;28;20044;-44
2021/07/13 07:42:28;;;;;;;4.60;4.10;;;23.10;72.50;;;;;;5047996;28;20098;-42
2021/07/13 07:44:53;;;;;;;17.30;13.40;;;23.00;72.50;;;;;;5050310;28;20052;-38
2021/07/13 07:47:19;;;;;;;15.55;11.30;;;23.10;73.10;;;;;;5050824;28;20481;-37
2021/07/13 07:49:45;;;;;;;12.23;9.73;;;23.10;73.50;;;;;;5052768;28;20045;-39
2021/07/13 07:52:10;;;;;;;10.98;9.60;;;23.00;73.70;;;;;;5056034;28;20041;-39
2021/07/13 07:54:36;;;;;;;11.70;10.13;;;23.00;73.80;;;;;;5056135;28;20397;-36
2021/07/13 07:57:02;;;;;;;12.35;10.60;;;23.10;74.00;;;;;;5056041;28;20048;-39
2021/07/13 07:59:28;;;;;;;13.43;10.20;;;23.10;74.10;;;;;;5056553;28;20409;-38
2021/07/13 08:01:54;;;;;;;11.93;10.30;;;23.10;74.20;;;;;;5055804;28;20049;-38
2021/07/13 08:04:20;;;;;;;11.88;10.68;;;23.10;74.30;;;;;;5054940;28;20053;-36
2021/07/13 08:06:45;;;;;;;12.02;10.52;;;23.00;74.40;;;;;;5056140;28;20051;-39
2021/07/13 08:09:11;;;;;;;11.63;10.43;;;23.10;74.50;;;;;;5053288;28;20047;-36
2021/07/13 08:11:38;;;;;;;13.38;11.25;;;23.00;74.50;;;;;;5055711;28;20128;-38
2021/07/13 08:14:05;;;;;;;15.10;11.63;;;23.00;74.60;;;;;;5056040;28;20056;-37
2021/07/13 08:16:32;;;;;;;12.77;11.43;;;23.00;74.70;;;;;;5055517;28;20120;-39
2021/07/13 08:18:58;;;;;;;15.70;12.48;;;23.10;74.90;;;;;;5055064;28;20120;-39
2021/07/13 08:21:23;;;;;;;13.98;12.40;;;23.10;74.90;;;;;;5056122;28;20580;-39
2021/07/13 08:23:49;;;;;;;20.98;13.93;;;23.10;75.00;;;;;;5055883;28;20040;-37
2021/07/13 08:26:15;;;;;;;18.70;13.70;;;23.10;75.40;;;;;;5055130;28;20481;-37
2021/07/13 08:28:41;;;;;;;18.13;12.02;;;23.00;75.40;;;;;;5055968;28;20436;-38
2021/07/13 08:31:07;;;;;;;14.52;11.70;;;23.10;75.50;;;;;;5056079;28;20048;-37
2021/07/13 08:33:33;;;;;;;14.13;11.68;;;23.10;75.40;;;;;;5054123;28;20463;-37
2021/07/13 08:35:59;;;;;;;14.57;10.57;;;23.10;75.20;;;;;;5050273;28;20110;-36
2021/07/13 08:38:24;;;;;;;13.82;10.27;;;23.10;75.10;;;;;;5052759;28;20440;-38
2021/07/13 08:40:50;;;;;;;11.73;10.52;;;23.10;75.00;;;;;;5048127;28;20387;-36
2021/07/13 08:43:16;;;;;;;14.43;11.93;;;23.10;74.90;;;;;;5050784;28;20044;-35
2021/07/13 08:45:43;;;;;;;10.98;9.52;;;23.10;74.80;;;;;;5045934;28;20045;-36
2021/07/13 08:48:12;;;;;;;11.27;9.90;;;23.10;74.70;;;;;;5045536;28;20045;-34
2021/07/13 08:50:39;;;;;;;11.20;8.70;;;23.10;74.60;;;;;;5045909;28;20135;-34
2021/07/13 08:53:05;;;;;;;19.30;9.63;;;23.10;74.60;;;;;;5051363;28;20052;-34
2021/07/13 08:55:32;;;;;;;10.60;9.35;;;23.10;74.50;;;;;;5051072;28;20049;-34
2021/07/13 08:57:59;;;;;;;10.35;9.00;;;23.10;74.40;;;;;;5053043;28;20070;-33
2021/07/13 09:00:25;;;;;;;9.68;8.68;;;23.10;74.30;;;;;;5052749;28;20041;-34
2021/07/13 09:03:08;;;;;;;9.40;7.97;;;23.10;74.30;;;;;;5046379;28;20413;-35
2021/07/13 09:05:56;;;;;;;13.13;8.55;;;23.20;74.20;;;;;;5048425;28;20068;-35
2021/07/13 09:08:30;;;;;;;9.48;8.48;;;23.10;74.10;;;;;;5052094;28;20056;-35
2021/07/13 09:11:00;;;;;;;9.07;8.15;;;23.10;74.10;;;;;;5046096;28;20194;-34
2021/07/13 09:13:30;;;;;;;11.02;8.85;;;23.20;74.10;;;;;;5049565;28;20095;-37
2021/07/13 09:16:00;;;;;;;9.23;8.30;;;23.10;74.00;;;;;;5050728;28;20045;-37
2021/07/13 09:18:34;;;;;;;8.85;7.93;;;23.10;73.90;;;;;;5047067;28;20049;-33
2021/07/13 09:21:07;;;;;;;7.90;7.00;;;23.10;73.90;;;;;;5051293;28;20049;-34
2021/07/13 09:23:33;;;;;;;9.07;8.18;;;23.10;73.90;;;;;;5048971;28;20398;-35
2021/07/13 09:25:58;;;;;;;8.40;7.60;;;23.20;73.90;;;;;;5051427;28;20571;-35
2021/07/13 09:28:25;;;;;;;7.53;6.75;;;23.10;73.80;;;;;;5052263;28;20076;-36
2021/07/13 09:30:59;;;;;;;9.27;7.40;;;23.20;73.80;;;;;;5049428;28;20041;-36
2021/07/13 09:33:32;;;;;;;7.22;6.53;;;23.20;73.80;;;;;;5045612;28;20139;-36
2021/07/13 09:36:11;;;;;;;8.13;6.93;;;23.20;73.80;;;;;;5048432;28;20053;-36
2021/07/13 09:38:39;;;;;;;10.23;7.18;;;23.20;74.00;;;;;;5048394;28;20151;-35
2021/07/13 09:41:13;;;;;;;8.15;6.85;;;23.20;73.70;;;;;;5051486;28;20041;-36
2021/07/13 09:44:00;;;;;;;7.28;6.57;;;23.20;73.70;;;;;;5051366;28;20119;-35
2021/07/13 09:46:38;;;;;;;7.90;7.10;;;23.20;73.60;;;;;;5050245;28;20036;-37
2021/07/13 09:49:24;;;;;;;8.07;7.18;;;23.20;73.60;;;;;;5049405;28;20412;-37
2021/07/13 09:52:01;;;;;;;7.93;7.18;;;23.20;73.60;;;;;;5051802;28;20070;-35
2021/07/13 09:54:35;;;;;;;7.00;6.30;;;23.20;73.60;;;;;;5050855;28;20065;-38
2021/07/13 09:57:11;;;;;;;7.68;6.88;;;23.20;73.60;;;;;;5049388;28;20045;-35
2021/07/13 09:59:37;;;;;;;8.13;6.53;;;23.20;73.50;;;;;;5052547;28;20103;-34
2021/07/13 10:02:05;;;;;;;7.53;6.18;;;23.20;73.50;;;;;;5052043;28;20060;-34
2021/07/13 10:04:32;;;;;;;6.90;6.05;;;23.20;73.40;;;;;;5052670;28;20123;-35
2021/07/13 10:07:03;;;;;;;7.00;6.22;;;23.20;73.40;;;;;;5052191;28;20045;-37
2021/07/13 10:09:35;;;;;;;7.30;6.60;;;23.20;73.40;;;;;;5051920;28;20429;-36
2021/07/13 10:12:01;;;;;;;6.75;6.05;;;23.20;73.40;;;;;;5052590;28;20091;-36
2021/07/13 10:14:27;;;;;;;6.65;6.05;;;23.20;73.30;;;;;;5051057;28;20057;-37
2021/07/13 10:16:53;;;;;;;6.68;5.85;;;23.20;73.30;;;;;;5051752;28;20451;-36
2021/07/13 10:19:20;;;;;;;6.97;6.03;;;23.20;73.30;;;;;;5052856;28;20519;-36
2021/07/13 10:21:47;;;;;;;6.70;6.03;;;23.20;73.20;;;;;;5049025;28;20095;-37
2021/07/13 10:24:14;;;;;;;7.35;6.65;;;23.20;73.20;;;;;;5050091;28;20542;-36
2021/07/13 10:26:46;;;;;;;6.47;5.88;;;23.20;73.90;;;;;;5048853;28;20087;-37
2021/07/13 10:29:34;;;;;;;6.90;6.15;;;23.20;73.20;;;;;;5051950;28;20396;-36
2021/07/13 10:32:18;;;;;;;7.03;6.32;;;23.20;73.10;;;;;;5045998;28;20039;-35
2021/07/13 10:34:53;;;;;;;6.53;5.93;;;23.20;73.10;;;;;;5050977;28;20064;-37
2021/07/13 10:37:29;;;;;;;6.45;5.80;;;23.30;73.10;;;;;;5047558;28;20409;-35
2021/07/13 10:39:58;;;;;;;5.95;5.35;;;23.30;73.10;;;;;;5047915;28;20049;-35
2021/07/13 10:42:42;;;;;;;6.28;5.60;;;23.30;73.10;;;;;;5048440;28;20087;-35
2021/07/13 10:45:10;;;;;;;6.20;5.60;;;23.30;73.00;;;;;;5049780;28;20102;-36
2021/07/13 10:47:36;;;;;;;6.43;5.82;;;23.30;73.10;;;;;;5048655;28;20072;-36
2021/07/13 10:50:16;;;;;;;6.28;5.68;;;23.30;73.10;;;;;;5049349;28;20064;-36
2021/07/13 10:53:02;;;;;;;5.82;5.22;;;23.30;73.00;;;;;;5051221;28;20051;-36
2021/07/13 10:55:31;;;;;;;6.32;5.72;;;23.30;73.00;;;;;;5050566;28;20064;-36
2021/07/13 10:58:11;;;;;;;6.63;5.97;;;23.30;73.00;;;;;;5046091;28;20052;-36
2021/07/13 11:06:15;;;;;;;22.73;16.92;;;23.20;75.20;;;;;;5051421;28;20064;-36
2021/07/13 11:08:44;;;;;;;36.70;18.95;;;23.20;76.00;;;;;;5050266;28;20040;-36
2021/07/13 11:11:22;;;;;;;22.70;17.83;;;23.20;76.70;;;;;;5051654;28;20040;-35
2021/07/13 11:13:58;;;;;;;28.38;17.60;;;23.10;77.70;;;;;;5050998;28;20037;-36
2021/07/13 11:16:34;;;;;;;107.25;23.77;;;23.00;78.10;;;;;;5051208;28;20053;-36
2021/07/13 11:19:03;;;;;;;28.70;17.70;;;23.00;78.70;;;;;;5051498;28;20051;-36
2021/07/13 11:21:35;;;;;;;26.25;16.88;;;23.00;79.30;;;;;;5051471;28;20128;-37
2021/07/13 11:24:07;;;;;;;28.55;16.45;;;23.00;79.50;;;;;;5050631;28;20060;-37
2021/07/13 11:26:47;;;;;;;21.85;15.40;;;23.00;79.30;;;;;;5047294;28;20075;-37
2021/07/13 11:29:27;;;;;;;28.38;15.70;;;23.00;79.00;;;;;;5048956;28;20044;-37
2021/07/13 11:31:57;;;;;;;21.27;14.35;;;23.00;78.70;;;;;;5045680;28;20073;-36
2021/07/13 11:34:24;;;;;;;18.10;13.10;;;23.10;78.50;;;;;;5046329;28;20052;-37
2021/07/13 11:36:55;;;;;;;16.30;13.68;;;23.10;78.10;;;;;;5046516;28;20555;-37
2021/07/13 11:39:23;;;;;;;16.38;13.23;;;23.20;77.90;;;;;;5046526;28;20052;-37
2021/07/13 11:41:52;;;;;;;17.38;12.38;;;23.20;77.60;;;;;;5046769;28;20495;-37
2021/07/13 11:44:17;;;;;;;18.58;13.35;;;23.20;77.40;;;;;;5049239;28;20041;-37
2021/07/13 11:46:46;;;;;;;13.70;11.20;;;23.20;77.10;;;;;;5048894;28;20048;-39
2021/07/13 11:49:17;;;;;;;15.63;11.38;;;23.20;76.90;;;;;;5049761;28;20140;-37
2021/07/13 11:51:51;;;;;;;15.57;11.73;;;23.20;76.60;;;;;;5047605;28;20122;-36
2021/07/13 11:54:19;;;;;;;15.93;11.45;;;23.30;76.50;;;;;;5049644;28;20047;-37
2021/07/13 11:56:47;;;;;;;15.23;10.68;;;23.20;76.30;;;;;;5047140;28;20821;-36
2021/07/13 11:59:25;;;;;;;12.75;10.85;;;23.30;76.20;;;;;;5050100;28;20048;-37
2021/07/13 12:01:55;;;;;;;12.82;10.00;;;23.30;76.00;;;;;;5046960;28;20091;-37
2021/07/13 12:04:23;;;;;;;15.40;10.80;;;23.30;75.90;;;;;;5048985;28;20052;-37
2021/07/13 12:06:54;;;;;;;16.67;10.80;;;23.30;75.80;;;;;;5043183;28;20092;-36
2021/07/13 12:09:31;;;;;;;13.15;9.75;;;23.30;76.30;;;;;;5048645;28;20053;-38
2021/07/13 12:12:04;;;;;;;12.57;9.68;;;23.30;76.20;;;;;;5048589;28;20499;-37
2021/07/13 12:14:31;;;;;;;12.48;9.50;;;23.30;75.40;;;;;;5048822;28;20091;-36
2021/07/13 12:16:58;;;;;;;10.27;8.60;;;23.30;75.30;;;;;;5048437;28;20036;-36
2021/07/13 12:19:27;;;;;;;10.23;9.23;;;23.40;75.30;;;;;;5042488;28;20045;-37
2021/07/13 12:22:18;;;;;;;10.68;8.60;;;23.40;75.20;;;;;;5040609;28;20114;-37
2021/07/13 12:24:47;;;;;;;10.45;8.68;;;23.30;75.10;;;;;;5042886;28;20054;-38
2021/07/13 12:27:19;;;;;;;10.25;8.77;;;23.30;75.10;;;;;;5042475;28;20056;-37
2021/07/13 12:29:57;;;;;;;11.90;8.38;;;23.40;75.00;;;;;;5037147;28;20041;-39
2021/07/13 12:32:26;;;;;;;11.38;8.82;;;23.30;74.90;;;;;;5041373;28;20116;-37
2021/07/13 12:34:54;;;;;;;10.57;8.82;;;23.30;74.90;;;;;;5046047;28;20053;-40
2021/07/13 12:37:23;;;;;;;9.55;8.20;;;23.40;74.80;;;;;;5048146;28;20049;-36
2021/07/13 12:40:10;;;;;;;10.52;7.78;;;23.40;74.80;;;;;;5050191;28;20489;-36
2021/07/13 12:42:47;;;;;;;9.23;8.23;;;23.40;74.80;;;;;;5049768;28;20102;-36
2021/07/13 12:45:17;;;;;;;9.50;8.45;;;23.40;74.70;;;;;;5048556;28;20052;-37
2021/07/13 12:47:46;;;;;;;9.82;7.47;;;23.40;74.70;;;;;;5041898;28;20517;-36
2021/07/13 12:50:12;;;;;;;9.10;8.20;;;23.30;74.60;;;;;;5030075;28;20790;-37
2021/07/13 12:52:54;;;;;;;7.97;7.22;;;23.40;74.60;;;;;;5043172;28;20045;-36
2021/07/13 12:55:32;;;;;;;9.05;7.57;;;23.40;74.50;;;;;;5049731;28;20133;-37